Billings, MT

5:22 AM MDT on July 27, 2016 (GMT -0600)
Jupiter Sulphur | | Change Station

Elev 3114 ft 45.78 °N, 108.49 °W | Updated 12 minutes ago

Mostly Cloudy
Mostly Cloudy
66.1 °F
Feels Like 66.1 °F
N
0.0
Wind Variable Wind from NE
Gusts 5.0 mph

Today
High -- | Low -- °F
--% Chance of Precip.
Yesterday
High -- | Low -- °F
Precip. -- in
Pressure 30.01 in
Visibility 10.0 miles
Clouds Few 11000 ft
Mostly Cloudy 20000 ft
Dew Point 58 °F
Humidity 76%
Rainfall 0.00 in
Snow Depth Not available.
5:51 AM 8:48 PM
Last Quarter, 44% visible
METAR KBIL 271053Z 02006KT 10SM FEW110 BKN200 17/14 A3012 RMK AO2 SLP162 T01720139
Pressure 30.01 in
Visibility 10.0 miles
Clouds Few 11000 ft
Mostly Cloudy 20000 ft
Dew Point 58 °F
Humidity 76%
Rainfall 0.00 in
Snow Depth Not available.
5:51 AM 8:48 PM
Last Quarter, 44% visible
METAR KBIL 271053Z 02006KT 10SM FEW110 BKN200 17/14 A3012 RMK AO2 SLP162 T01720139

10-Day Weather Forecast

Almanac

Astronomy

Jul. 27, 2016 Rise Set
Actual Time
Civil Twilight
Nautical Twilight
Astronomical Twilight
Moon
Length of Visible Light
Length of Day
Tomorrow will be .
, % of the Moon is Illuminated

Today's Extremes

State Highs State Lows

Community

WunderPhotos

Upload Photos

1,927,826 photos uploaded!

WunderBlog® & News

Nearby

Air Quality

  Air Quality AQ Index Pollutant
Not available.

Snow Depth

Station Depth Elevation

Earthquake Activity

City Distance Mag. Time & Date
Minimum magnitude displayed is 2.5.

Coastal Water Temperatures

Place Temperature

Stations

Nearby Weather Stations

Station Location Temp. Windchill Dew Point Humidity Wind Precip. Elev Updated Type
                   

Watches & Warnings

There are currently no watches in effect.